Time;durP1;ratioP1;P1;durP2;ratioP2;P2;SDS_P1;SDS_P2;PMS_P1;PMS_P2;Temp;Humidity;BMP_temperature;BMP_pressure;BME280_temperature;BME280_humidity;BME280_pressure;Samples;Min_cycle;Max_cycle;Signal;HPM_P1;HPM_P2
2022/03/11 00:01:52;;;;;;;72.08;33.95;;;;;;;-6.48;73.14;99744.63;1743784;81;27694;-56
2022/03/11 00:04:19;;;;;;;86.75;34.35;;;;;;;-6.51;73.54;99750.98;1744133;82;26918;-55
2022/03/11 00:06:45;;;;;;;80.40;29.57;;;;;;;-6.51;73.14;99747.02;1769289;80;20998;-56
2022/03/11 00:09:12;;;;;;;73.35;32.50;;;;;;;-6.50;71.81;99747.38;1774962;80;21568;-57
2022/03/11 00:11:38;;;;;;;88.40;36.20;;;;;;;-6.54;71.14;99749.45;1746201;80;22226;-56
2022/03/11 00:14:04;;;;;;;80.85;33.92;;;;;;;-6.63;72.98;99748.91;1744114;82;20998;-55
2022/03/11 00:16:30;;;;;;;77.58;33.05;;;;;;;-6.63;73.61;99746.27;1743865;81;26616;-56
2022/03/11 00:18:56;;;;;;;76.07;33.05;;;;;;;-6.55;72.96;99744.30;1744304;82;21026;-56
2022/03/11 00:21:22;;;;;;;77.17;33.40;;;;;;;-6.53;73.10;99746.33;1747068;80;20847;-56
2022/03/11 00:23:48;;;;;;;85.07;33.88;;;;;;;-6.49;72.59;99739.84;1744042;82;21393;-56
2022/03/11 00:26:13;;;;;;;80.30;34.63;;;;;;;-6.51;72.94;99732.52;1757561;80;26648;-56
2022/03/11 00:28:39;;;;;;;76.80;31.80;;;;;;;-6.49;72.66;99733.70;1744263;82;26532;-56
2022/03/11 00:31:05;;;;;;;75.52;33.50;;;;;;;-6.53;70.62;99737.09;1744605;82;20938;-57
2022/03/11 00:33:31;;;;;;;63.02;27.37;;;;;;;-6.61;70.76;99733.78;1744217;81;21318;-55
2022/03/11 00:35:57;;;;;;;78.05;30.75;;;;;;;-6.68;71.14;99731.78;1744242;80;20976;-56
2022/03/11 00:38:23;;;;;;;63.30;27.07;;;;;;;-6.72;69.86;99733.85;1744156;82;21018;-56
2022/03/11 00:40:51;;;;;;;68.87;30.05;;;;;;;-6.76;71.09;99730.27;1743904;82;21448;-56
2022/03/11 00:43:18;;;;;;;64.40;26.97;;;;;;;-6.82;73.59;99726.36;1744430;81;21443;-55
2022/03/11 00:45:44;;;;;;;67.42;26.85;;;;;;;-6.82;72.22;99731.15;1746797;81;20986;-55
2022/03/11 00:48:10;;;;;;;67.65;26.62;;;;;;;-6.86;70.42;99726.24;1744241;81;21506;-56
2022/03/11 00:50:36;;;;;;;59.63;28.52;;;;;;;-6.93;71.06;99728.55;1744156;82;26757;-54
2022/03/11 00:53:02;;;;;;;62.30;25.60;;;;;;;-6.95;70.12;99721.25;1744339;82;25897;-55
2022/03/11 00:55:28;;;;;;;67.32;27.52;;;;;;;-7.01;70.64;99724.39;1744438;82;20982;-55
2022/03/11 00:57:54;;;;;;;71.25;28.30;;;;;;;-7.13;74.64;99719.66;1744168;81;21018;-56
2022/03/11 01:00:20;;;;;;;72.37;28.02;;;;;;;-7.12;73.69;99722.64;1744124;82;21437;-56
2022/03/11 01:02:46;;;;;;;61.95;27.80;;;;;;;-7.11;74.69;99716.41;1744116;82;26579;-56
2022/03/11 01:05:12;;;;;;;73.30;28.98;;;;;;;-7.10;72.67;99724.66;1744495;82;25869;-55
2022/03/11 01:07:38;;;;;;;64.67;29.18;;;;;;;-7.15;74.42;99714.16;1743979;81;20848;-55
2022/03/11 01:10:06;;;;;;;58.92;26.30;;;;;;;-7.21;75.45;99723.88;1745373;80;20960;-55
2022/03/11 01:12:32;;;;;;;59.38;27.30;;;;;;;-7.21;72.12;99719.92;1774976;80;21044;-55
2022/03/11 01:14:58;;;;;;;65.00;26.37;;;;;;;-7.24;71.22;99721.51;1767649;80;27523;-56
2022/03/11 01:17:24;;;;;;;55.58;24.43;;;;;;;-7.34;74.93;99721.42;1744142;81;26219;-56
2022/03/11 01:19:50;;;;;;;53.28;24.55;;;;;;;-7.35;75.43;99722.84;1744174;82;24248;-56
2022/03/11 01:22:15;;;;;;;64.05;27.40;;;;;;;-7.40;75.87;99718.80;1744104;81;20882;-55
2022/03/11 01:24:41;;;;;;;59.18;25.20;;;;;;;-7.51;76.71;99723.27;1744513;82;22155;-54
2022/03/11 01:27:07;;;;;;;65.35;26.50;;;;;;;-7.61;77.21;99717.04;1743970;80;26423;-55
2022/03/11 01:29:33;;;;;;;61.15;24.67;;;;;;;-7.60;76.19;99717.42;1744496;82;25795;-55
2022/03/11 01:31:59;;;;;;;61.77;27.40;;;;;;;-7.64;76.98;99714.19;1744184;81;28741;-55
2022/03/11 01:34:25;;;;;;;62.78;25.40;;;;;;;-7.67;77.13;99708.69;1744537;80;20890;-55
2022/03/11 01:36:51;;;;;;;59.50;23.32;;;;;;;-7.66;76.27;99712.16;1745867;80;21016;-55
2022/03/11 01:39:17;;;;;;;53.55;20.43;;;;;;;-7.71;75.01;99707.73;1744233;82;26644;-55
2022/03/11 01:41:42;;;;;;;58.30;23.12;;;;;;;-7.75;74.58;99711.09;1749398;80;25827;-55
2022/03/11 01:44:09;;;;;;;52.20;23.65;;;;;;;-7.75;74.28;99707.62;1756694;80;21465;-55
2022/03/11 01:46:36;;;;;;;56.10;26.55;;;;;;;-7.79;76.94;99705.70;1746911;80;20963;-55
2022/03/11 01:49:05;;;;;;;53.75;22.80;;;;;;;-7.76;76.47;99709.43;1744378;82;21374;-55
2022/03/11 01:51:33;;;;;;;61.48;28.25;;;;;;;-7.75;76.04;99712.41;1743807;81;20999;-56
2022/03/11 01:54:00;;;;;;;47.13;21.95;;;;;;;-7.78;77.21;99707.86;1744468;82;20971;-55
2022/03/11 01:56:27;;;;;;;53.13;21.77;;;;;;;-7.76;75.09;99705.48;1747454;80;21044;-56
2022/03/11 01:58:55;;;;;;;47.48;19.20;;;;;;;-7.80;73.83;99706.67;1774945;80;21037;-54
2022/03/11 02:01:23;;;;;;;34.70;15.25;;;;;;;-7.79;74.24;99710.13;1750116;80;21393;-54
2022/03/11 02:03:50;;;;;;;41.13;18.65;;;;;;;-7.79;72.41;99710.13;1743927;81;21050;-54
2022/03/11 02:06:17;;;;;;;59.50;22.00;;;;;;;-7.82;73.77;99713.02;1744148;82;21062;-55
2022/03/11 02:08:44;;;;;;;58.10;23.40;;;;;;;-7.84;72.73;99709.20;1744127;81;21506;-54
2022/03/11 02:11:11;;;;;;;52.40;22.55;;;;;;;-7.84;74.48;99708.36;1744127;80;21018;-55
2022/03/11 02:13:49;;;;;;;51.77;21.40;;;;;;;-7.84;71.89;99706.56;1744098;82;21315;-54
2022/03/11 02:16:25;;;;;;;43.98;18.73;;;;;;;-7.87;73.13;99711.22;1759489;80;21427;-56
2022/03/11 02:18:52;;;;;;;53.65;21.93;;;;;;;-7.90;72.40;99712.79;1774742;80;20962;-55
2022/03/11 02:21:20;;;;;;;48.83;18.10;;;;;;;-7.92;74.88;99704.19;1750973;80;21574;-55
2022/03/11 02:23:52;;;;;;;41.85;20.27;;;;;;;-7.92;73.55;99713.39;1744164;81;20998;-55
2022/03/11 02:26:21;;;;;;;46.50;23.27;;;;;;;-7.97;74.91;99721.16;1747407;80;22100;-54
2022/03/11 02:28:49;;;;;;;47.13;18.70;;;;;;;-8.01;75.17;99719.74;1774732;80;21029;-54
2022/03/11 02:31:19;;;;;;;52.90;22.13;;;;;;;-8.03;77.08;99719.03;1767407;80;20954;-54
2022/03/11 02:33:46;;;;;;;42.75;18.12;;;;;;;-8.04;73.58;99721.76;1774137;80;21009;-55
2022/03/11 02:36:13;;;;;;;49.58;19.48;;;;;;;-8.07;74.26;99722.84;1755151;80;20997;-54
2022/03/11 02:38:40;;;;;;;37.98;18.17;;;;;;;-8.09;76.09;99724.77;1743961;81;21436;-55
2022/03/11 02:41:07;;;;;;;56.48;20.15;;;;;;;-8.09;73.51;99722.13;1743345;80;20951;-55
2022/03/11 02:43:34;;;;;;;36.65;17.50;;;;;;;-8.12;74.89;99717.58;1745176;81;20957;-55
2022/03/11 02:46:01;;;;;;;46.77;18.70;;;;;;;-8.13;74.92;99723.80;1763967;80;20954;-55
2022/03/11 02:48:28;;;;;;;37.15;15.43;;;;;;;-8.16;76.15;99727.98;1774744;80;21465;-55
2022/03/11 02:50:55;;;;;;;45.25;18.90;;;;;;;-8.20;76.72;99726.09;1758019;80;21407;-55
2022/03/11 02:53:22;;;;;;;44.63;17.87;;;;;;;-8.19;76.62;99730.87;1743961;81;21018;-55
2022/03/11 02:55:49;;;;;;;42.93;19.27;;;;;;;-8.19;74.64;99733.50;1759856;80;21037;-54
2022/03/11 02:58:16;;;;;;;36.90;16.48;;;;;;;-8.20;75.16;99731.34;1774897;80;21005;-54
2022/03/11 03:00:43;;;;;;;44.42;18.00;;;;;;;-8.18;77.80;99732.06;1761599;80;20985;-54
2022/03/11 03:03:10;;;;;;;50.17;21.10;;;;;;;-8.17;78.23;99738.16;1744090;81;21359;-55
2022/03/11 03:05:36;;;;;;;46.53;18.25;;;;;;;-8.14;76.91;99733.48;1744092;82;21003;-54
2022/03/11 03:08:04;;;;;;;45.08;20.15;;;;;;;-8.13;76.00;99733.84;1744133;82;20927;-54
2022/03/11 03:10:31;;;;;;;36.93;15.53;;;;;;;-8.15;76.53;99730.97;1747193;80;21399;-54
2022/03/11 03:12:58;;;;;;;50.12;21.05;;;;;;;-8.23;78.11;99731.56;1744087;81;20962;-54
2022/03/11 03:15:25;;;;;;;47.98;20.25;;;;;;;-8.29;78.32;99732.03;1746934;80;21344;-54
2022/03/11 03:17:52;;;;;;;44.10;18.02;;;;;;;-8.28;77.87;99735.05;1744033;82;20967;-55
2022/03/11 03:20:19;;;;;;;47.00;19.70;;;;;;;-8.25;77.76;99737.44;1744251;82;21050;-55
2022/03/11 03:22:46;;;;;;;52.60;19.85;;;;;;;-8.28;79.00;99742.46;1744133;81;21007;-55
2022/03/11 03:25:12;;;;;;;40.73;17.73;;;;;;;-8.29;77.89;99739.92;1744203;82;21411;-54
2022/03/11 03:27:39;;;;;;;54.63;20.52;;;;;;;-8.31;77.52;99739.21;1764389;80;21434;-54
2022/03/11 03:30:08;;;;;;;44.80;18.27;;;;;;;-8.36;78.49;99746.67;1766001;80;21002;-55
2022/03/11 03:32:35;;;;;;;40.28;17.80;;;;;;;-8.33;76.34;99739.81;1744063;81;21428;-55
2022/03/11 03:35:01;;;;;;;49.25;17.87;;;;;;;-8.39;76.60;99740.30;1744185;81;21390;-54
2022/03/11 03:37:28;;;;;;;37.58;16.65;;;;;;;-8.43;77.40;99742.83;1744191;81;21049;-54
2022/03/11 03:39:55;;;;;;;38.38;16.55;;;;;;;-8.46;77.57;99739.09;1744265;82;21390;-54
2022/03/11 03:42:22;;;;;;;37.60;16.02;;;;;;;-8.45;75.98;99740.32;1744007;82;20955;-55
2022/03/11 03:44:50;;;;;;;49.73;17.92;;;;;;;-8.47;75.21;99738.73;1743137;80;21423;-55
2022/03/11 03:47:17;;;;;;;43.13;16.45;;;;;;;-8.47;74.19;99740.05;1744074;80;21020;-53
2022/03/11 03:49:44;;;;;;;42.62;17.82;;;;;;;-8.54;75.84;99733.14;1746219;80;21399;-54
2022/03/11 03:52:12;;;;;;;39.83;18.12;;;;;;;-8.58;76.73;99731.68;1744127;81;21319;-55
2022/03/11 03:54:41;;;;;;;60.00;23.70;;;;;;;-8.60;77.78;99722.60;1744392;82;20991;-55
2022/03/11 03:57:08;;;;;;;;;;;;;;;-8.59;78.13;99726.06;1746019;81;20994;-55
2022/03/11 03:59:34;;;;;;;48.35;18.45;;;;;;;-8.65;79.07;99727.83;1744349;82;20178;-54
2022/03/11 04:02:02;;;;;;;44.05;18.37;;;;;;;-8.65;76.67;99727.36;1744066;81;21033;-55
2022/03/11 04:04:29;;;;;;;38.88;17.85;;;;;;;-8.67;76.48;99727.13;1744251;82;21427;-54
2022/03/11 04:06:56;;;;;;;54.33;20.82;;;;;;;-8.76;77.56;99727.81;1744049;81;21097;-54
2022/03/11 04:09:23;;;;;;;45.30;20.35;;;;;;;-8.78;77.88;99729.25;1744469;82;21022;-55
2022/03/11 04:11:50;;;;;;;37.13;18.23;;;;;;;-8.80;77.12;99729.85;1744154;82;21195;-55
2022/03/11 04:14:17;;;;;;;43.87;20.43;;;;;;;-8.81;76.29;99734.72;1744467;82;21019;-54
2022/03/11 04:16:43;;;;;;;53.73;21.10;;;;;;;-8.84;76.75;99736.27;1744569;81;21665;-54
2022/03/11 04:19:10;;;;;;;49.83;20.55;;;;;;;-8.84;76.97;99739.73;1744196;82;21388;-55
2022/03/11 04:21:37;;;;;;;44.80;19.77;;;;;;;-8.80;77.90;99740.36;1744171;81;21006;-54
2022/03/11 04:24:12;;;;;;;46.60;19.40;;;;;;;-8.75;77.02;99738.21;1744133;82;21060;-55
2022/03/11 04:26:33;;;;;;;41.55;19.00;;;;;;;-8.74;75.31;99737.25;1749385;80;20997;-55
2022/03/11 04:29:00;;;;;;;53.50;24.67;;;;;;;-8.68;74.41;99743.38;1774888;80;21482;-54
2022/03/11 04:31:27;;;;;;;55.80;25.08;;;;;;;-8.69;76.00;99738.23;1749091;80;21007;-54
2022/03/11 04:33:55;;;;;;;70.85;27.00;;;;;;;-8.65;75.39;99743.61;1744180;81;21049;-53
2022/03/11 04:36:22;;;;;;;44.42;19.85;;;;;;;-8.60;75.29;99739.69;1747636;80;20967;-54
2022/03/11 04:38:49;;;;;;;53.17;21.85;;;;;;;-8.55;74.77;99745.41;1744210;82;21046;-54
2022/03/11 04:41:16;;;;;;;42.50;20.45;;;;;;;-8.57;75.11;99739.45;1763261;80;21977;-55
2022/03/11 04:43:45;;;;;;;48.87;25.32;;;;;;;-8.51;75.04;99739.95;1767642;80;21530;-55
2022/03/11 04:46:12;;;;;;;;;;;;;;;-8.52;75.84;99741.73;1751308;80;20978;-54
2022/03/11 04:48:41;;;;;;;56.05;21.48;;;;;;;-8.54;77.25;99738.39;1743959;81;20188;-55
2022/03/11 04:51:07;;;;;;;;;;;;;;;-8.52;76.88;99741.73;1746672;80;21443;-55
2022/03/11 04:53:34;;;;;;;36.70;15.58;;;;;;;-8.55;77.83;99741.95;1744093;82;21529;-55
2022/03/11 04:56:01;;;;;;;35.45;15.98;;;;;;;-8.60;77.90;99738.38;1744181;82;20975;-55
2022/03/11 04:58:28;;;;;;;38.53;16.57;;;;;;;-8.62;76.91;99737.66;1744148;81;21462;-54
2022/03/11 05:00:55;;;;;;;36.17;16.12;;;;;;;-8.60;76.33;99737.53;1744122;82;20974;-54
2022/03/11 05:03:22;;;;;;;43.02;17.00;;;;;;;-8.64;76.19;99738.23;1744013;81;20966;-55
2022/03/11 05:05:49;;;;;;;39.53;16.00;;;;;;;-8.69;77.19;99738.23;1744310;82;21322;-55
2022/03/11 05:08:16;;;;;;;54.88;21.87;;;;;;;-8.67;77.36;99736.32;1743986;80;21002;-54
2022/03/11 05:10:42;;;;;;;39.73;14.90;;;;;;;-8.66;77.37;99734.88;1753128;80;21044;-55
2022/03/11 05:13:09;;;;;;;53.42;22.13;;;;;;;-8.65;77.18;99731.30;1774880;80;21025;-54
2022/03/11 05:15:38;;;;;;;46.92;20.20;;;;;;;-8.69;76.96;99733.81;1759791;80;20958;-54
2022/03/11 05:18:05;;;;;;;51.20;22.95;;;;;;;-8.71;77.11;99740.98;1744266;82;21415;-54
2022/03/11 05:20:31;;;;;;;50.67;20.02;;;;;;;-8.73;76.69;99740.23;1744109;82;21045;-54
2022/03/11 05:22:58;;;;;;;63.00;23.35;;;;;;;-8.70;77.13;99738.72;1744186;81;20966;-54
2022/03/11 05:25:25;;;;;;;51.18;23.35;;;;;;;-8.73;76.87;99738.09;1749482;80;21037;-55
2022/03/11 05:27:52;;;;;;;46.05;19.65;;;;;;;-8.73;76.81;99740.72;1744193;80;21386;-55
2022/03/11 05:30:19;;;;;;;42.08;20.12;;;;;;;-8.74;77.35;99745.62;1744125;82;21578;-54
2022/03/11 05:32:46;;;;;;;47.80;21.65;;;;;;;-8.77;77.30;99747.17;1744163;81;20994;-55
2022/03/11 05:35:16;;;;;;;49.55;22.15;;;;;;;-8.73;76.26;99748.59;1748899;80;20958;-54
2022/03/11 05:37:44;;;;;;;51.08;22.20;;;;;;;-8.71;76.97;99748.03;1744060;80;21009;-55
2022/03/11 05:40:12;;;;;;;47.35;22.62;;;;;;;-8.68;76.80;99755.67;1744139;82;20947;-54
2022/03/11 05:42:39;;;;;;;43.13;21.33;;;;;;;-8.63;76.78;99752.20;1744281;81;21769;-54
2022/03/11 05:45:07;;;;;;;54.63;23.18;;;;;;;-8.55;76.55;99753.78;1728750;80;21030;-53
2022/03/11 05:47:34;;;;;;;68.10;28.73;;;;;;;-8.50;76.99;99750.81;1744432;82;21049;-55
2022/03/11 05:50:02;;;;;;;65.08;25.88;;;;;;;-8.50;77.27;99752.13;1744287;82;20963;-55
2022/03/11 05:52:29;;;;;;;59.83;31.42;;;;;;;-8.54;77.81;99758.95;1744248;82;21209;-54
2022/03/11 05:54:56;;;;;;;84.07;32.93;;;;;;;-8.53;78.02;99759.78;1744405;82;21409;-54
2022/03/11 05:57:23;;;;;;;77.47;34.13;;;;;;;-8.46;78.31;99766.70;1744127;81;21014;-54
2022/03/11 05:59:50;;;;;;;78.47;32.75;;;;;;;-8.43;78.07;99763.38;1744370;82;21045;-55
2022/03/11 06:02:17;;;;;;;92.92;39.63;;;;;;;-8.30;77.17;99771.96;1748918;80;21023;-54
2022/03/11 06:04:44;;;;;;;69.20;30.08;;;;;;;-8.23;76.71;99772.34;1708300;83;21039;-54
2022/03/11 06:07:10;;;;;;;67.55;31.23;;;;;;;-8.15;77.40;99768.64;1747437;80;21937;-56
2022/03/11 06:09:37;;;;;;;81.15;34.88;;;;;;;-8.03;76.20;99770.79;1757841;80;21410;-54
2022/03/11 06:12:06;;;;;;;84.50;35.13;;;;;;;-7.99;76.67;99765.18;1743937;82;20919;-55
2022/03/11 06:14:33;;;;;;;88.58;39.95;;;;;;;-7.89;76.08;99766.61;1743887;81;21487;-53
2022/03/11 06:17:00;;;;;;;70.65;32.15;;;;;;;-7.82;77.06;99778.34;1744167;81;20998;-54
2022/03/11 06:19:27;;;;;;;71.70;33.63;;;;;;;-7.71;77.10;99772.22;1745331;81;21400;-54
2022/03/11 06:21:57;;;;;;;70.67;29.85;;;;;;;-7.62;76.93;99782.03;1747298;80;21074;-55
2022/03/11 06:24:23;;;;;;;62.25;27.10;;;;;;;-7.52;77.24;99775.09;1752851;80;21384;-55
2022/03/11 06:26:50;;;;;;;54.88;21.85;;;;;;;-7.39;77.13;99774.94;1749737;80;22281;-55
2022/03/11 06:29:17;;;;;;;56.53;27.82;;;;;;;-7.31;76.66;99783.06;1756270;80;20955;-55
2022/03/11 06:31:43;;;;;;;50.63;22.73;;;;;;;-7.19;76.05;99787.34;1754980;80;21322;-55
2022/03/11 06:34:10;;;;;;;50.95;19.60;;;;;;;-7.00;75.84;99791.98;1759000;80;20970;-56
2022/03/11 06:36:37;;;;;;;107.50;42.65;;;;;;;-6.82;74.67;99784.36;1748986;80;21045;-55
2022/03/11 06:39:04;;;;;;;147.45;58.02;;;;;;;-6.75;73.94;99785.98;1744195;82;21029;-55
2022/03/11 06:41:31;;;;;;;115.35;44.73;;;;;;;-6.63;74.13;99788.46;1744502;80;20967;-55
2022/03/11 06:43:58;;;;;;;146.55;60.43;;;;;;;-6.45;73.80;99787.41;1751808;80;21333;-55
2022/03/11 06:46:25;;;;;;;136.50;55.43;;;;;;;-6.28;73.91;99787.30;1747121;80;21076;-54
2022/03/11 06:48:52;;;;;;;131.72;48.10;;;;;;;-6.10;73.26;99795.47;1741341;82;21115;-55
2022/03/11 06:51:19;;;;;;;141.92;55.52;;;;;;;-6.01;72.86;99782.80;1748827;80;20978;-55
2022/03/11 06:53:46;;;;;;;102.00;40.67;;;;;;;-5.89;72.91;99785.70;1746656;80;21560;-55
2022/03/11 06:56:13;;;;;;;90.67;36.77;;;;;;;-5.77;72.47;99783.79;1749771;80;21030;-56
2022/03/11 06:58:39;;;;;;;67.03;28.10;;;;;;;-5.69;72.22;99783.97;1741377;82;21061;-56
2022/03/11 07:01:06;;;;;;;65.55;29.98;;;;;;;-5.54;72.31;99781.31;1750447;80;21114;-56
2022/03/11 07:03:33;;;;;;;76.97;31.52;;;;;;;-5.31;72.21;99776.62;1747560;80;21474;-55
2022/03/11 07:06:00;;;;;;;74.77;31.33;;;;;;;-5.26;71.57;99783.67;1742575;82;21485;-55
2022/03/11 07:08:28;;;;;;;84.50;34.92;;;;;;;-5.12;71.65;99778.00;1747876;80;21052;-56
2022/03/11 07:10:55;;;;;;;84.45;42.55;;;;;;;-4.52;71.61;99781.86;1749423;80;21171;-56
2022/03/11 07:13:22;;;;;;;66.72;32.33;;;;;;;-3.76;70.99;99781.34;1743719;80;21068;-56
2022/03/11 07:15:49;;;;;;;62.78;26.07;;;;;;;-3.14;70.79;99767.83;1751855;80;21083;-57
2022/03/11 07:18:16;;;;;;;63.98;30.77;;;;;;;-2.18;71.06;99771.98;1754536;80;20982;-56
2022/03/11 07:20:43;;;;;;;140.43;71.50;;;;;;;-1.91;69.86;99770.98;1751886;80;22045;-56
2022/03/11 07:23:10;;;;;;;97.40;48.70;;;;;;;-1.40;66.91;99764.42;1759680;80;21434;-56
2022/03/11 07:25:38;;;;;;;61.73;31.93;;;;;;;-0.26;68.90;99761.92;1750220;80;21566;-57
2022/03/11 07:28:05;;;;;;;45.45;25.62;;;;;;;0.70;69.22;99757.86;1742743;80;21612;-57
2022/03/11 07:30:32;;;;;;;46.53;26.85;;;;;;;1.29;66.98;99759.02;1752290;80;21041;-57
2022/03/11 07:33:01;;;;;;;52.75;27.55;;;;;;;1.87;59.44;99766.05;1743964;80;21029;-56
2022/03/11 07:35:28;;;;;;;55.88;30.72;;;;;;;2.69;55.47;99744.59;1745066;80;21073;-57
2022/03/11 07:37:55;;;;;;;49.93;27.30;;;;;;;3.56;60.13;99747.18;1717906;82;32468;-57
2022/03/11 07:40:22;;;;;;;74.17;42.85;;;;;;;4.19;58.15;99748.11;1743923;80;21101;-57
2022/03/11 07:42:49;;;;;;;75.67;31.95;;;;;;;4.36;55.71;99744.57;1752138;80;22288;-57
2022/03/11 07:45:16;;;;;;;27.90;17.62;;;;;;;4.65;54.36;99756.94;1748800;80;21067;-58
2022/03/11 07:47:44;;;;;;;35.23;16.90;;;;;;;5.11;54.61;99749.05;1740840;81;21048;-57
2022/03/11 07:50:11;;;;;;;19.20;13.57;;;;;;;5.85;52.11;99750.82;1745769;80;21025;-57
2022/03/11 07:52:38;;;;;;;25.72;16.70;;;;;;;5.96;49.16;99754.78;1759348;80;21342;-57
2022/03/11 07:55:09;;;;;;;33.35;21.68;;;;;;;6.25;46.48;99746.80;1758550;80;20988;-58
2022/03/11 07:57:36;;;;;;;33.60;27.87;;;;;;;7.30;48.73;99743.69;1749337;80;21044;-58
2022/03/11 08:00:06;;;;;;;23.90;15.40;;;;;;;8.00;46.28;99737.38;1749968;80;21029;-57
2022/03/11 08:02:34;;;;;;;31.68;20.72;;;;;;;8.45;40.78;99744.75;1743400;80;21053;-58
2022/03/11 08:05:01;;;;;;;23.50;16.00;;;;;;;9.17;44.24;99738.19;1745518;80;21020;-58
2022/03/11 08:07:28;;;;;;;32.17;19.37;;;;;;;9.74;38.96;99744.84;1746950;80;22306;-58
2022/03/11 08:09:55;;;;;;;59.13;45.70;;;;;;;9.95;36.51;99742.10;1740855;80;21092;-58
2022/03/11 08:12:22;;;;;;;42.13;29.50;;;;;;;10.19;30.59;99748.37;1754961;80;21021;-58
2022/03/11 08:14:49;;;;;;;22.05;14.47;;;;;;;10.19;31.25;99741.59;1741687;82;21033;-57
2022/03/11 08:17:16;;;;;;;18.35;12.75;;;;;;;11.10;37.37;99737.33;1754945;80;21399;-57
2022/03/11 08:19:43;;;;;;;18.67;12.50;;;;;;;11.85;34.23;99739.00;1744871;80;21001;-58
2022/03/11 08:22:12;;;;;;;17.82;11.38;;;;;;;11.91;34.75;99736.66;1752387;80;21501;-58
2022/03/11 08:24:39;;;;;;;;;;;;;;;11.70;33.44;99729.20;1756817;80;21009;-58
2022/03/11 08:27:07;;;;;;;20.23;13.17;;;;;;;12.32;32.19;99732.69;1753645;80;20236;-58
2022/03/11 08:29:34;;;;;;;17.60;11.73;;;;;;;12.22;28.49;99725.75;1760200;80;21427;-56
2022/03/11 08:32:03;;;;;;;17.00;11.85;;;;;;;11.80;30.70;99723.45;1745446;80;21113;-58
2022/03/11 08:34:30;;;;;;;15.90;11.38;;;;;;;10.56;26.80;99727.28;1755340;80;21326;-58
2022/03/11 08:36:57;;;;;;;15.35;10.20;;;;;;;10.56;26.80;99727.28;1741539;80;21431;-57
2022/03/11 08:39:24;;;;;;;16.62;11.55;;;;;;;11.41;29.26;99721.64;1749702;80;21052;-57
2022/03/11 08:41:51;;;;;;;18.12;11.35;;;;;;;12.69;29.30;99722.05;1754110;80;21122;-58
2022/03/11 08:44:18;;;;;;;16.25;9.65;;;;;;;13.38;28.28;99724.78;1751557;80;21103;-58
2022/03/11 08:46:45;;;;;;;18.15;11.40;;;;;;;12.63;23.09;99717.61;1752901;80;21647;-58
2022/03/11 08:49:11;;;;;;;19.98;12.07;;;;;;;13.80;27.05;99721.64;1756242;80;21761;-59
2022/03/11 08:51:39;;;;;;;21.05;12.58;;;;;;;14.10;26.30;99716.17;1744928;80;21008;-58
2022/03/11 08:54:06;;;;;;;14.73;9.40;;;;;;;15.95;25.95;99706.48;1745979;82;21541;-58
2022/03/11 08:56:33;;;;;;;30.97;19.62;;;;;;;15.95;25.95;99706.48;1741802;80;21717;-58
2022/03/11 08:59:00;;;;;;;11.80;6.17;;;;;;;16.34;23.35;99710.00;1749839;80;21119;-58
2022/03/11 09:01:27;;;;;;;9.70;5.67;;;;;;;16.86;18.58;99709.60;1749777;80;21324;-58
2022/03/11 09:03:54;;;;;;;9.80;5.00;;;;;;;16.77;19.11;99702.25;1695551;82;21520;-57
2022/03/11 09:06:22;;;;;;;11.30;7.60;;;;;;;15.88;18.88;99700.46;1752540;80;21486;-58
2022/03/11 09:08:49;;;;;;;22.02;13.53;;;;;;;13.39;19.33;99704.64;1751814;80;21528;-57
2022/03/11 09:11:16;;;;;;;11.95;7.53;;;;;;;9.94;20.71;99698.48;1755438;80;21100;-57
2022/03/11 09:13:43;;;;;;;39.38;19.48;;;;;;;8.42;22.72;99701.45;1753827;80;21056;-56
2022/03/11 09:16:10;;;;;;;14.25;8.20;;;;;;;6.49;23.66;99698.48;1751877;80;21176;-56
2022/03/11 09:18:37;;;;;;;29.05;11.95;;;;;;;5.87;23.99;99705.70;1750723;80;21005;-57
2022/03/11 09:21:04;;;;;;;38.20;17.87;;;;;;;4.52;25.26;99706.16;1747740;80;21500;-56
2022/03/11 09:23:31;;;;;;;18.32;9.98;;;;;;;4.22;26.70;99708.28;1755264;80;21544;-57
2022/03/11 09:25:57;;;;;;;19.90;12.15;;;;;;;3.59;26.68;99702.55;1750951;80;21163;-56
2022/03/11 09:28:25;;;;;;;13.98;6.97;;;;;;;3.12;27.44;99701.31;1753143;80;21072;-56
2022/03/11 09:30:52;;;;;;;15.53;9.70;;;;;;;2.89;27.30;99689.42;1750477;80;21040;-56
2022/03/11 09:33:19;;;;;;;8.85;5.60;;;;;;;2.76;28.12;99694.14;1741413;80;21552;-56
2022/03/11 09:35:46;;;;;;;13.20;7.45;;;;;;;2.42;28.21;99685.39;1754155;80;21486;-57
2022/03/11 09:38:12;;;;;;;8.70;4.95;;;;;;;2.41;28.34;99689.09;1721609;82;21062;-57
2022/03/11 09:40:42;;;;;;;39.25;12.70;;;;;;;2.23;28.48;99692.14;1754049;80;21800;-56
2022/03/11 09:43:14;;;;;;;19.40;9.60;;;;;;;1.70;29.61;99687.85;1753764;80;21476;-57
2022/03/11 09:45:41;;;;;;;11.95;7.47;;;;;;;1.65;29.83;99691.09;1748020;80;21033;-56
2022/03/11 09:48:08;;;;;;;10.60;5.95;;;;;;;1.73;29.66;99696.86;1744205;80;20997;-56
2022/03/11 09:50:36;;;;;;;15.28;7.85;;;;;;;1.75;28.14;99687.32;1745389;80;21036;-57
2022/03/11 09:53:03;;;;;;;10.98;5.45;;;;;;;1.76;27.92;99687.13;1756050;80;21053;-56
2022/03/11 09:55:30;;;;;;;13.68;6.85;;;;;;;1.79;28.62;99687.27;1752065;80;21077;-57
2022/03/11 09:57:57;;;;;;;13.28;6.37;;;;;;;1.80;30.39;99690.29;1752406;80;21006;-57
2022/03/11 10:00:24;;;;;;;13.03;6.25;;;;;;;1.81;30.62;99686.09;1747231;80;21642;-57
2022/03/11 10:02:51;;;;;;;19.27;8.25;;;;;;;1.90;30.78;99685.50;1746982;80;21576;-56
2022/03/11 10:05:18;;;;;;;24.98;9.20;;;;;;;1.88;30.75;99696.86;1744526;81;21131;-56
2022/03/11 10:07:44;;;;;;;10.20;5.85;;;;;;;1.73;29.69;99690.69;1746222;80;20986;-56
2022/03/11 10:10:18;;;;;;;13.38;6.90;;;;;;;1.74;30.29;99695.84;1751199;80;21072;-55
2022/03/11 10:12:47;;;;;;;15.58;8.65;;;;;;;1.73;30.45;99693.36;1754394;80;21854;-56
2022/03/11 10:15:16;;;;;;;9.70;5.15;;;;;;;1.50;31.01;99702.75;1754384;80;20951;-57
2022/03/11 10:17:44;;;;;;;12.53;6.35;;;;;;;1.61;31.29;99701.80;1752648;80;21868;-56
2022/03/11 10:20:15;;;;;;;15.58;6.72;;;;;;;1.36;31.55;99690.49;1756765;80;21107;-55
2022/03/11 10:22:45;;;;;;;14.70;6.28;;;;;;;1.43;31.84;99693.28;1750403;80;21061;-56
2022/03/11 10:25:20;;;;;;;17.05;7.87;;;;;;;1.43;32.08;99702.63;1752157;80;21443;-56
2022/03/11 10:28:08;;;;;;;11.88;6.00;;;;;;;1.50;32.44;99699.57;1746911;80;21158;-56
2022/03/11 10:30:44;;;;;;;14.65;7.45;;;;;;;1.62;32.37;99702.16;1748043;80;21049;-56
2022/03/11 10:33:13;;;;;;;12.70;5.67;;;;;;;1.63;32.15;99695.79;1756716;80;21426;-56
2022/03/11 10:35:47;;;;;;;12.98;7.28;;;;;;;1.37;31.05;99694.85;1751226;80;20978;-56
2022/03/11 10:38:26;;;;;;;20.62;8.75;;;;;;;1.29;31.23;99690.08;1744988;80;21234;-55
2022/03/11 10:40:55;;;;;;;18.82;10.75;;;;;;;1.56;31.96;99690.02;1734690;80;21469;-57
2022/03/11 10:43:26;;;;;;;;;;;;;;;1.65;31.34;99680.40;1748489;80;21096;-57
2022/03/11 10:45:57;;;;;;;14.78;7.45;;;;;;;1.80;32.48;99675.59;1742728;80;20161;-57
2022/03/11 10:48:45;;;;;;;51.83;24.35;;;;;;;1.92;31.04;99676.78;1748657;80;21121;-57
2022/03/11 10:51:31;;;;;;;10.43;5.28;;;;;;;2.05;31.58;99675.65;1748745;80;21078;-57
2022/03/11 10:54:06;;;;;;;25.90;5.87;;;;;;;1.96;28.92;99676.22;1755173;80;21067;-56
2022/03/11 10:56:39;;;;;;;21.05;9.20;;;;;;;1.97;30.27;99670.39;1752722;80;20997;-55
2022/03/11 10:59:26;;;;;;;30.70;9.28;;;;;;;1.79;30.47;99670.72;1754943;80;21187;-56
2022/03/11 11:01:54;;;;;;;10.45;5.53;;;;;;;1.93;31.21;99665.90;1734477;80;21048;-57
2022/03/11 11:04:20;;;;;;;24.25;8.23;;;;;;;1.98;30.04;99668.03;1740050;82;20974;-57
2022/03/11 11:06:47;;;;;;;15.38;7.72;;;;;;;1.88;30.75;99661.62;1750629;80;21618;-57
2022/03/11 11:09:17;;;;;;;10.60;5.78;;;;;;;1.80;29.92;99658.22;1746387;80;22732;-56
2022/03/11 11:11:44;;;;;;;18.15;8.63;;;;;;;1.83;28.87;99653.31;1749024;80;21016;-57
2022/03/11 11:14:11;;;;;;;7.62;4.15;;;;;;;1.91;30.42;99655.91;1754262;80;21022;-56
2022/03/11 11:16:45;;;;;;;9.03;4.78;;;;;;;2.04;30.45;99653.91;1761075;80;21708;-57
2022/03/11 11:19:14;;;;;;;38.95;29.50;;;;;;;1.85;28.46;99661.15;1757292;80;21044;-56
2022/03/11 11:21:48;;;;;;;10.85;5.87;;;;;;;1.89;29.38;99653.10;1757747;80;20991;-56
2022/03/11 11:24:23;;;;;;;10.75;4.17;;;;;;;1.82;29.95;99657.52;1755659;80;21092;-57